Terminal Aerodrome Forecast
Issued by NWS Jacksonville, FL

Home | Current Version | Previous Version | Text Only | Print | Product List | Glossary On
Versions: 1 2 3 4 5 6 7 8 9 10 11 12 13 14 15
000
FTUS42 KJAX 310535
TAFJAX
TAF
KJAX 310535Z 3106/0106 23006KT P6SM FEW080 SCT100
     FM311500 28006KT P6SM SCT050 SCT100
     FM312100 11008KT P6SM VCTS SCT050CB SCT250
     FM010200 18005KT P6SM SCT050 SCT100=

USA.gov is the U.S. government's official web portal to all federal, state and local government web resources and services.